Time;durP1;ratioP1;P1;durP2;ratioP2;P2;SDS_P1;SDS_P2;PMS_P1;PMS_P2;Temp;Humidity;BMP_temperature;BMP_pressure;BME280_temperature;BME280_humidity;BME280_pressure;Samples;Min_cycle;Max_cycle;Signal;HPM_P1;HPM_P2
2022/06/19 00:00:46;;;;;;;4.25;1.27;;;;;;;26.11;47.01;100770.22;5074028;28;20107;-69
2022/06/19 00:03:31;;;;;;;5.07;1.58;;;;;;;26.09;47.07;100765.03;5073704;28;20465;-69
2022/06/19 00:05:57;;;;;;;4.75;1.50;;;;;;;26.09;46.44;100757.03;5073402;28;20031;-69
2022/06/19 00:08:23;;;;;;;4.28;1.52;;;;;;;26.08;46.63;100759.88;5073533;28;20512;-70
2022/06/19 00:10:49;;;;;;;4.40;1.40;;;;;;;26.06;46.76;100766.22;5073877;28;20078;-69
2022/06/19 00:13:15;;;;;;;7.03;1.48;;;;;;;26.06;46.49;100762.72;5072818;28;20376;-70
2022/06/19 00:15:43;;;;;;;3.58;1.10;;;;;;;26.04;46.56;100749.56;5073767;28;20021;-70
2022/06/19 00:18:11;;;;;;;4.53;1.27;;;;;;;26.04;46.09;100740.69;5073561;28;20029;-69
2022/06/19 00:20:40;;;;;;;4.63;1.25;;;;;;;26.02;46.33;100738.22;5073064;28;20031;-69
2022/06/19 00:23:06;;;;;;;3.92;1.30;;;;;;;26.03;46.53;100757.75;5073435;28;20027;-70
2022/06/19 00:25:31;;;;;;;4.68;1.33;;;;;;;26.02;46.58;100758.75;5073248;28;20024;-70
2022/06/19 00:27:57;;;;;;;4.05;1.17;;;;;;;26.01;46.20;100757.94;5071189;28;20045;-69
2022/06/19 00:30:22;;;;;;;4.47;1.33;;;;;;;26.00;46.06;100768.78;5073333;28;20025;-69
2022/06/19 00:32:47;;;;;;;6.00;1.40;;;;;;;26.00;46.49;100782.94;5073608;28;20108;-69
2022/06/19 00:35:13;;;;;;;5.00;1.40;;;;;;;25.99;46.42;100786.63;5072443;28;20048;-70
2022/06/19 00:37:39;;;;;;;5.07;1.30;;;;;;;25.98;45.92;100784.97;5073243;28;20270;-69
2022/06/19 00:40:07;;;;;;;4.22;1.30;;;;;;;25.97;46.00;100780.63;5072391;28;20379;-69
2022/06/19 00:42:33;;;;;;;6.47;1.27;;;;;;;25.97;46.19;100777.16;5073335;28;20025;-69
2022/06/19 00:44:58;;;;;;;5.57;1.52;;;;;;;25.97;45.88;100779.81;5073270;28;20366;-69
2022/06/19 00:47:34;;;;;;;5.50;1.13;;;;;;;25.95;45.96;100779.97;5072091;28;20020;-69
2022/06/19 00:50:25;;;;;;;7.32;1.48;;;;;;;25.94;45.98;100772.13;5073079;28;20476;-69
2022/06/19 00:52:54;;;;;;;4.85;1.58;;;;;;;25.92;46.01;100772.31;5062245;28;20087;-70
2022/06/19 00:55:32;;;;;;;3.42;1.10;;;;;;;25.93;45.89;100782.00;5072087;28;20048;-69
2022/06/19 00:58:03;;;;;;;5.22;1.50;;;;;;;25.92;45.76;100777.66;5073042;28;20029;-69
2022/06/19 01:00:30;;;;;;;5.30;1.52;;;;;;;25.91;45.59;100780.50;5072714;28;20032;-69
2022/06/19 01:03:21;;;;;;;5.70;1.42;;;;;;;25.90;45.63;100779.69;5072098;28;20043;-70
2022/06/19 01:05:48;;;;;;;5.70;1.45;;;;;;;25.89;45.84;100772.66;5064583;28;20051;-70
2022/06/19 01:08:13;;;;;;;5.50;1.58;;;;;;;25.87;45.66;100767.50;5071938;28;20025;-70
2022/06/19 01:10:46;;;;;;;4.47;1.35;;;;;;;25.87;45.58;100770.16;5071966;28;20480;-70
2022/06/19 01:13:14;;;;;;;5.68;1.27;;;;;;;25.86;45.61;100773.00;5072315;28;20024;-70
2022/06/19 01:15:39;;;;;;;4.32;1.20;;;;;;;25.85;45.28;100772.19;5071228;28;20089;-70
2022/06/19 01:18:07;;;;;;;3.88;1.17;;;;;;;25.84;45.26;100805.22;5072826;28;20443;-69
2022/06/19 01:20:34;;;;;;;5.30;1.52;;;;;;;25.84;45.04;100893.31;5072588;28;20103;-70
2022/06/19 01:23:09;;;;;;;4.53;1.40;;;;;;;25.83;44.94;100950.38;5071024;28;20094;-69
2022/06/19 01:25:37;;;;;;;4.30;1.35;;;;;;;25.83;45.04;100902.31;5072757;28;20483;-70
2022/06/19 01:30:54;;;;;;;4.28;1.30;;;;;;;25.80;44.70;100846.66;5071832;28;20035;-70
2022/06/19 01:33:27;;;;;;;7.22;1.60;;;;;;;25.80;44.71;100901.84;5072279;28;20025;-70
2022/06/19 01:35:54;;;;;;;5.17;1.60;;;;;;;25.79;44.73;100903.69;5054916;28;20031;-70
2022/06/19 01:38:23;;;;;;;5.22;1.40;;;;;;;25.78;44.58;100851.31;5071490;28;20124;-70
2022/06/19 01:40:52;;;;;;;5.55;1.50;;;;;;;25.77;44.13;100867.50;5072703;28;20020;-70
2022/06/19 01:43:20;;;;;;;5.30;1.27;;;;;;;25.76;43.91;100922.72;5071433;28;20472;-70
2022/06/19 01:45:52;;;;;;;6.78;1.40;;;;;;;25.75;44.17;100915.72;5072576;28;20031;-70
2022/06/19 01:48:19;;;;;;;4.80;1.75;;;;;;;25.74;44.07;100859.84;5072115;28;20487;-70
2022/06/19 01:50:44;;;;;;;4.82;1.65;;;;;;;25.73;43.59;100880.38;5071604;28;20020;-70
2022/06/19 01:53:21;;;;;;;6.05;1.48;;;;;;;25.70;43.65;100880.72;5071997;28;20051;-70
2022/06/19 01:55:46;;;;;;;5.18;1.42;;;;;;;25.70;43.18;100876.19;5072507;28;20028;-70
2022/06/19 01:58:20;;;;;;;5.35;1.38;;;;;;;25.70;43.20;100900.22;5071361;28;20070;-70
2022/06/19 02:00:48;;;;;;;6.20;1.25;;;;;;;25.69;43.15;100914.59;5072308;28;20031;-70
2022/06/19 02:03:20;;;;;;;6.05;1.33;;;;;;;25.69;43.48;100892.38;5071966;28;20074;-70
2022/06/19 02:05:45;;;;;;;5.07;1.23;;;;;;;25.67;42.92;100903.22;5071747;28;20039;-70
2022/06/19 02:08:14;;;;;;;6.93;1.52;;;;;;;25.66;43.17;100906.91;5072155;28;20020;-70
2022/06/19 02:10:45;;;;;;;4.43;1.33;;;;;;;25.65;42.98;100905.25;5072351;28;20028;-70
2022/06/19 02:13:18;;;;;;;4.90;1.50;;;;;;;25.64;42.64;100902.75;5071156;28;20033;-70
2022/06/19 02:15:48;;;;;;;5.53;1.40;;;;;;;25.63;42.70;100893.91;5072130;28;20430;-70
2022/06/19 02:18:20;;;;;;;6.68;1.60;;;;;;;25.62;42.69;100889.56;5071986;28;20085;-70
2022/06/19 02:20:45;;;;;;;4.35;1.23;;;;;;;25.62;42.13;100894.09;5071625;28;20017;-70
2022/06/19 02:23:14;;;;;;;5.60;1.80;;;;;;;25.60;41.93;100899.59;5071910;28;20035;-70
2022/06/19 02:25:40;;;;;;;3.67;1.05;;;;;;;25.59;41.98;100908.59;5071286;28;20032;-70
2022/06/19 02:28:07;;;;;;;5.90;1.45;;;;;;;25.58;41.96;100904.28;5071809;28;20040;-70
2022/06/19 02:30:34;;;;;;;4.22;1.15;;;;;;;25.57;41.63;100913.28;5072152;28;20021;-70
2022/06/19 02:33:00;;;;;;;6.45;1.45;;;;;;;25.56;41.53;100929.47;5071311;28;20036;-70
2022/06/19 02:35:32;;;;;;;5.32;1.30;;;;;;;25.55;41.72;100917.97;5071652;28;20020;-70
2022/06/19 02:38:05;;;;;;;6.63;1.40;;;;;;;25.54;41.42;100924.31;5072100;28;20036;-70
2022/06/19 02:40:54;;;;;;;5.93;1.60;;;;;;;25.52;41.34;100919.13;5071042;28;20380;-71
2022/06/19 02:43:26;;;;;;;6.13;1.45;;;;;;;25.51;41.57;100925.47;5071564;28;20480;-70
2022/06/19 02:45:51;;;;;;;5.13;1.30;;;;;;;25.51;41.56;100930.81;5072004;28;20047;-70
2022/06/19 02:48:28;;;;;;;4.67;1.40;;;;;;;25.49;41.31;100908.81;5071995;28;20530;-70
2022/06/19 02:51:04;;;;;;;5.00;1.55;;;;;;;25.51;41.17;100895.28;5075477;28;20340;-70
2022/06/19 02:53:30;;;;;;;4.35;1.38;;;;;;;25.49;40.99;100889.31;5075088;28;20163;-70
2022/06/19 02:55:55;;;;;;;4.65;1.25;;;;;;;25.48;41.06;100896.47;5074432;28;20107;-70
2022/06/19 02:58:21;;;;;;;5.97;1.52;;;;;;;25.47;40.86;100945.50;5075188;28;20021;-70
2022/06/19 03:00:51;;;;;;;3.50;1.13;;;;;;;25.47;40.78;101006.06;5074563;28;20082;-70
2022/06/19 03:03:35;;;;;;;4.05;1.27;;;;;;;25.46;40.92;101020.38;5074828;28;20017;-70
2022/06/19 03:06:00;;;;;;;;;;;;;;;25.43;41.24;100981.53;5075865;28;20063;-70
2022/06/19 03:08:26;;;;;;;7.32;1.85;;;;;;;25.43;41.29;100938.00;5074311;28;20362;-70
2022/06/19 03:10:51;;;;;;;6.10;1.13;;;;;;;25.42;40.64;100933.66;5075296;28;20519;-70
2022/06/19 03:13:21;;;;;;;6.70;1.43;;;;;;;25.41;40.52;100940.84;5074532;28;20324;-70
2022/06/19 03:15:46;;;;;;;6.05;1.48;;;;;;;25.40;40.60;100939.19;5074191;28;20269;-70
2022/06/19 03:18:12;;;;;;;5.00;1.52;;;;;;;25.38;40.62;100919.84;5074474;28;20058;-70
2022/06/19 03:20:37;;;;;;;6.88;1.50;;;;;;;25.39;40.15;100904.66;5075031;28;20021;-70
2022/06/19 03:23:02;;;;;;;4.60;1.20;;;;;;;25.38;40.33;100897.69;5074095;28;20425;-70
2022/06/19 03:25:30;;;;;;;5.07;1.30;;;;;;;25.36;39.98;100876.53;5074606;28;20034;-70
2022/06/19 03:27:57;;;;;;;6.78;1.40;;;;;;;25.35;39.79;100889.00;5074490;28;20289;-70
2022/06/19 03:30:28;;;;;;;5.30;1.20;;;;;;;25.33;39.44;100907.03;5073561;28;20437;-70
2022/06/19 03:32:54;;;;;;;3.47;0.90;;;;;;;25.33;39.35;100923.03;5074441;28;20076;-70
2022/06/19 03:35:19;;;;;;;8.45;1.52;;;;;;;25.32;39.47;100905.34;5074362;28;20525;-70
2022/06/19 03:37:44;;;;;;;3.45;0.95;;;;;;;25.31;39.71;100895.69;5073913;28;20078;-70
2022/06/19 03:40:10;;;;;;;6.72;1.50;;;;;;;25.30;39.83;100890.53;5074124;28;20066;-70
2022/06/19 03:42:36;;;;;;;5.18;1.10;;;;;;;25.29;39.67;100894.19;5074544;28;20065;-70
2022/06/19 03:45:02;;;;;;;6.53;1.02;;;;;;;25.29;39.33;100859.53;5073560;28;20028;-70
2022/06/19 03:47:27;;;;;;;4.28;1.33;;;;;;;25.28;39.42;100837.38;5073967;28;20448;-70
2022/06/19 03:49:58;;;;;;;4.70;1.10;;;;;;;25.27;38.90;100856.19;5074169;28;20118;-70
2022/06/19 03:52:23;;;;;;;4.05;1.08;;;;;;;25.25;39.28;100884.88;5073980;28;20306;-70
2022/06/19 03:54:49;;;;;;;3.55;0.98;;;;;;;25.26;39.14;100969.19;5074317;28;20017;-70
2022/06/19 03:57:14;;;;;;;4.25;1.00;;;;;;;25.24;39.13;100998.69;5073330;28;20135;-70
2022/06/19 03:59:40;;;;;;;3.85;0.98;;;;;;;25.24;38.96;100992.53;5073770;28;20012;-70
2022/06/19 04:02:08;;;;;;;3.95;1.10;;;;;;;25.23;39.48;100910.84;5073918;28;20033;-70
2022/06/19 04:04:34;;;;;;;3.00;0.90;;;;;;;25.23;39.43;100894.84;5073393;28;20021;-70
2022/06/19 04:06:59;;;;;;;3.47;1.10;;;;;;;25.22;39.17;100930.53;5073987;28;20515;-70
2022/06/19 04:09:25;;;;;;;5.27;1.20;;;;;;;25.21;39.51;100903.00;5073646;28;20023;-70
2022/06/19 04:11:50;;;;;;;5.32;1.00;;;;;;;25.20;39.08;100869.38;5073081;28;20273;-70
2022/06/19 04:14:16;;;;;;;4.43;1.02;;;;;;;25.19;38.95;100859.69;5073498;28;20036;-69
2022/06/19 04:16:42;;;;;;;3.47;0.93;;;;;;;25.19;39.07;100826.88;5073663;28;20027;-69
2022/06/19 04:19:08;;;;;;;3.53;0.80;;;;;;;25.17;38.68;100795.88;5072865;28;20526;-70
2022/06/19 04:21:39;;;;;;;5.63;1.00;;;;;;;25.16;39.26;100788.03;5073980;28;20025;-70
2022/06/19 04:24:05;;;;;;;3.47;0.80;;;;;;;25.16;39.32;100778.19;5073765;28;20082;-70
2022/06/19 04:26:34;;;;;;;3.85;0.90;;;;;;;25.16;39.15;100754.19;5072520;28;20095;-70
2022/06/19 04:29:00;;;;;;;5.32;1.00;;;;;;;25.16;39.16;100740.84;5073525;28;20135;-70
2022/06/19 04:31:26;;;;;;;4.63;1.42;;;;;;;25.16;38.83;100734.72;5073399;28;20100;-70
2022/06/19 04:33:52;;;;;;;3.45;0.90;;;;;;;25.15;38.86;100741.03;5072730;28;20111;-70
2022/06/19 04:36:20;;;;;;;3.80;0.90;;;;;;;25.15;39.04;100738.38;5073113;28;20447;-70
2022/06/19 04:38:49;;;;;;;4.35;1.05;;;;;;;25.15;38.82;100741.03;5073216;28;20065;-70
2022/06/19 04:41:29;;;;;;;4.13;1.00;;;;;;;25.14;38.69;100744.72;5072315;28;20099;-70
2022/06/19 04:43:56;;;;;;;4.55;0.90;;;;;;;25.14;39.10;100747.38;5073188;28;20096;-70
2022/06/19 04:46:22;;;;;;;4.80;1.02;;;;;;;25.13;38.65;100745.72;5072356;28;20025;-70
2022/06/19 04:48:48;;;;;;;5.88;1.00;;;;;;;25.13;38.93;100737.72;5073217;28;20482;-70
2022/06/19 04:51:14;;;;;;;4.97;1.00;;;;;;;25.12;39.36;100704.91;5072920;28;20025;-70
2022/06/19 04:53:43;;;;;;;3.40;1.00;;;;;;;25.12;39.61;100688.91;5071057;28;20396;-70
2022/06/19 04:56:10;;;;;;;6.05;1.35;;;;;;;25.11;39.49;100687.22;5072476;28;20382;-70
2022/06/19 04:58:36;;;;;;;4.40;1.20;;;;;;;25.11;40.05;100683.75;5073082;28;20032;-70
2022/06/19 05:01:03;;;;;;;5.70;1.00;;;;;;;25.12;39.63;100683.56;5071928;28;20021;-70
2022/06/19 05:03:29;;;;;;;9.55;1.10;;;;;;;25.11;40.06;100683.75;5072652;28;20032;-70
2022/06/19 05:05:54;;;;;;;4.07;1.00;;;;;;;25.10;39.80;100698.06;5072902;28;20467;-70
2022/06/19 05:08:21;;;;;;;4.32;1.05;;;;;;;25.11;39.56;100713.06;5071863;28;20074;-70
2022/06/19 05:10:46;;;;;;;4.68;0.88;;;;;;;25.11;39.72;100753.88;5072044;28;20024;-70
2022/06/19 05:13:20;;;;;;;5.65;1.00;;;;;;;25.08;39.77;100783.56;5072589;28;20024;-70
2022/06/19 05:15:46;;;;;;;;;;;;;;;25.10;39.72;100770.06;5072646;28;20031;-70
2022/06/19 05:18:12;;;;;;;5.03;1.20;;;;;;;25.09;39.87;100745.25;5072303;28;19966;-70
2022/06/19 05:20:38;;;;;;;6.25;1.00;;;;;;;25.09;39.75;100741.75;5072855;28;20032;-70
2022/06/19 05:23:05;;;;;;;3.35;1.02;;;;;;;25.08;40.06;100758.75;5071934;28;20384;-70
2022/06/19 05:25:30;;;;;;;4.72;1.05;;;;;;;25.08;40.00;100774.75;5072387;28;20025;-70
2022/06/19 05:27:55;;;;;;;4.18;1.02;;;;;;;25.08;40.05;100786.22;5072630;28;20346;-70
2022/06/19 05:30:21;;;;;;;3.47;1.10;;;;;;;25.08;39.87;100806.75;5071766;28;20079;-70
2022/06/19 05:32:46;;;;;;;2.85;1.20;;;;;;;25.08;39.82;100820.88;5072644;28;20281;-70
2022/06/19 05:35:11;;;;;;;3.57;0.93;;;;;;;25.08;39.86;100820.06;5072346;28;20031;-70
2022/06/19 05:37:36;;;;;;;2.30;0.70;;;;;;;25.09;40.32;100840.41;5071787;28;20333;-70
2022/06/19 05:40:03;;;;;;;4.67;1.17;;;;;;;25.09;40.00;100862.56;5072719;28;20491;-70
2022/06/19 05:42:49;;;;;;;6.00;1.20;;;;;;;25.10;40.30;100880.22;5071264;28;20315;-70
2022/06/19 05:45:14;;;;;;;8.13;1.23;;;;;;;25.10;40.00;100888.22;5071408;28;20033;-70
2022/06/19 05:47:39;;;;;;;3.03;0.90;;;;;;;25.10;40.42;100888.22;5072227;28;20111;-70
2022/06/19 05:50:05;;;;;;;4.85;0.98;;;;;;;25.11;40.30;100873.06;5071675;28;20063;-70
2022/06/19 05:52:31;;;;;;;4.38;1.17;;;;;;;25.10;39.86;100855.38;5071761;28;20028;-70
2022/06/19 05:54:56;;;;;;;3.03;1.00;;;;;;;25.09;39.79;100883.88;5072484;28;20028;-70
2022/06/19 05:57:27;;;;;;;4.30;1.10;;;;;;;25.09;40.13;100909.72;5071323;28;20273;-70
2022/06/19 05:59:54;;;;;;;4.53;0.82;;;;;;;25.09;39.91;100909.72;5072264;28;20265;-70
2022/06/19 06:02:22;;;;;;;3.53;0.90;;;;;;;25.09;40.11;100913.22;5071881;28;20029;-69
2022/06/19 06:04:48;;;;;;;5.00;1.35;;;;;;;25.09;40.12;100921.22;5071340;28;20039;-70
2022/06/19 06:07:16;;;;;;;4.70;1.00;;;;;;;25.09;40.43;100917.72;5071663;28;20104;-70
2022/06/19 06:09:41;;;;;;;3.05;0.80;;;;;;;25.08;39.82;100956.03;5072171;28;20029;-70
2022/06/19 06:12:13;;;;;;;3.00;0.87;;;;;;;25.07;39.87;100984.56;5071255;28;20379;-70
2022/06/19 06:14:41;;;;;;;5.25;1.10;;;;;;;25.07;39.81;100975.69;5071987;28;20360;-70
2022/06/19 06:17:06;;;;;;;4.22;0.93;;;;;;;25.07;40.19;100973.03;5072197;28;20106;-70
2022/06/19 06:19:32;;;;;;;5.20;1.00;;;;;;;25.07;40.14;100960.56;5070875;28;20044;-69
2022/06/19 06:22:01;;;;;;;2.42;0.82;;;;;;;25.06;39.92;100976.72;5072578;28;20469;-69
2022/06/19 06:24:26;;;;;;;6.65;1.27;;;;;;;25.05;40.41;101065.69;5074404;28;20123;-70
2022/06/19 06:26:52;;;;;;;3.80;1.00;;;;;;;25.05;39.91;101074.50;5075094;28;20444;-70
2022/06/19 06:29:20;;;;;;;5.63;0.85;;;;;;;25.05;40.01;101074.50;5076484;28;20269;-70
2022/06/19 06:31:48;;;;;;;5.10;1.10;;;;;;;25.05;40.27;101100.34;5074781;28;20028;-70
2022/06/19 06:34:14;;;;;;;5.32;1.13;;;;;;;25.04;40.32;101155.53;5075145;28;20038;-70
2022/06/19 06:36:40;;;;;;;6.22;1.02;;;;;;;25.04;40.01;101192.00;5075529;28;20111;-71
2022/06/19 06:39:05;;;;;;;7.40;1.65;;;;;;;25.03;40.28;101209.00;5074788;28;20031;-71
2022/06/19 06:41:30;;;;;;;5.85;1.10;;;;;;;25.03;40.45;101201.84;5074164;28;20086;-71
2022/06/19 06:43:55;;;;;;;4.93;1.20;;;;;;;25.03;40.26;101206.34;5075426;28;20391;-71
2022/06/19 06:46:23;;;;;;;5.80;1.30;;;;;;;25.02;40.38;101197.50;5074374;28;20112;-71
2022/06/19 06:48:52;;;;;;;3.97;1.20;;;;;;;25.01;40.50;101200.31;5075303;28;20307;-70
2022/06/19 06:51:24;;;;;;;5.20;1.30;;;;;;;25.01;40.71;101195.84;5075598;28;20397;-68
2022/06/19 06:53:50;;;;;;;5.25;0.90;;;;;;;25.01;40.53;101184.31;5074417;28;20081;-67
2022/06/19 06:56:16;;;;;;;5.72;1.05;;;;;;;25.01;40.94;101171.00;5074771;28;20028;-67
2022/06/19 06:58:41;;;;;;;8.77;2.00;;;;;;;24.99;40.79;101166.69;5075070;28;20505;-67
2022/06/19 07:01:19;;;;;;;5.88;1.50;;;;;;;24.99;40.53;101150.69;5074299;28;20036;-68
2022/06/19 07:03:46;;;;;;;6.30;1.30;;;;;;;24.99;40.80;101144.50;5075580;28;20040;-68
2022/06/19 07:06:12;;;;;;;6.15;1.20;;;;;;;24.98;40.72;101151.66;5074555;28;20024;-69
2022/06/19 07:08:38;;;;;;;4.25;1.13;;;;;;;24.98;40.31;101146.34;5074201;28;20040;-69
2022/06/19 07:11:03;;;;;;;8.85;1.10;;;;;;;24.97;40.45;101167.81;5074722;28;20020;-68
2022/06/19 07:13:29;;;;;;;5.60;1.42;;;;;;;24.95;40.88;101181.31;5074451;28;20042;-68
2022/06/19 07:15:54;;;;;;;8.50;1.40;;;;;;;24.94;40.84;101203.66;5073991;28;20111;-67
2022/06/19 07:18:22;;;;;;;4.65;1.00;;;;;;;24.95;40.78;101204.47;5074510;28;20028;-67
2022/06/19 07:20:47;;;;;;;4.13;0.85;;;;;;;24.94;40.58;101208.13;5074610;28;20463;-67
2022/06/19 07:23:13;;;;;;;5.40;1.02;;;;;;;24.94;40.39;101190.31;5073729;28;20049;-68
2022/06/19 07:25:39;;;;;;;5.65;1.20;;;;;;;24.92;40.78;101141.66;5074482;28;20103;-67
2022/06/19 07:28:04;;;;;;;6.45;1.15;;;;;;;24.91;40.45;101117.81;5073399;28;20464;-66
2022/06/19 07:30:30;;;;;;;4.32;1.02;;;;;;;24.91;40.86;101104.50;5074042;28;20020;-67
2022/06/19 07:32:55;;;;;;;6.22;1.13;;;;;;;24.90;40.76;101070.84;5074232;28;20021;-66
2022/06/19 07:35:22;;;;;;;3.88;1.13;;;;;;;24.89;40.38;101063.84;5072577;28;20036;-67
2022/06/19 07:37:48;;;;;;;4.72;1.00;;;;;;;24.87;40.76;101045.34;5074436;28;20024;-67
2022/06/19 07:40:15;;;;;;;4.88;1.08;;;;;;;24.86;40.85;101041.00;5074085;28;20027;-66
2022/06/19 07:42:42;;;;;;;5.15;1.15;;;;;;;24.87;40.83;101031.19;5073706;28;20021;-67
2022/06/19 07:45:08;;;;;;;6.40;1.30;;;;;;;24.86;41.27;100990.34;5074321;28;20353;-67
2022/06/19 07:50:17;;;;;;;6.57;1.10;;;;;;;24.85;41.39;101034.03;5074152;28;20051;-67
2022/06/19 07:52:46;;;;;;;4.03;1.00;;;;;;;24.86;41.33;101098.81;5074339;28;20032;-67
2022/06/19 07:55:15;;;;;;;5.03;1.05;;;;;;;24.86;40.93;101125.47;5074036;28;20021;-67
2022/06/19 07:57:41;;;;;;;5.25;1.10;;;;;;;24.86;41.24;101165.47;5073537;28;20059;-67
2022/06/19 08:00:11;;;;;;;5.68;1.33;;;;;;;24.86;40.97;101174.28;5074076;28;20021;-67
2022/06/19 08:02:36;;;;;;;4.85;1.15;;;;;;;24.86;41.58;101144.97;5074221;28;20066;-67
2022/06/19 08:05:03;;;;;;;8.70;1.35;;;;;;;24.86;41.37;101109.47;5073564;28;20021;-67
2022/06/19 08:07:28;;;;;;;6.47;1.48;;;;;;;24.86;41.37;101107.63;5073833;28;20036;-67
2022/06/19 08:09:54;;;;;;;7.50;1.10;;;;;;;24.86;41.26;101104.97;5073793;28;20020;-68
2022/06/19 08:12:20;;;;;;;4.85;1.20;;;;;;;24.86;41.49;101057.00;5072765;28;20024;-67
2022/06/19 08:14:46;;;;;;;9.10;1.52;;;;;;;24.87;41.46;101095.16;5073762;28;20028;-67
2022/06/19 08:17:11;;;;;;;7.45;1.30;;;;;;;24.91;41.92;101136.47;5072913;28;20021;-67
2022/06/19 08:19:36;;;;;;;5.60;1.25;;;;;;;24.91;41.61;101115.16;5073590;28;20020;-67
2022/06/19 08:22:02;;;;;;;11.43;1.50;;;;;;;24.90;41.80;101060.19;5073566;28;20020;-66
2022/06/19 08:24:27;;;;;;;6.72;1.30;;;;;;;24.89;41.55;101074.50;5072433;28;20269;-67
2022/06/19 08:27:05;;;;;;;4.77;1.10;;;;;;;24.88;41.35;101060.34;5073554;28;20381;-65
2022/06/19 08:29:30;;;;;;;6.90;1.20;;;;;;;24.88;41.61;101051.50;5073409;28;20326;-65
2022/06/19 08:31:55;;;;;;;8.07;1.27;;;;;;;24.87;41.87;101050.69;5072886;28;20017;-66
2022/06/19 08:34:27;;;;;;;8.80;1.42;;;;;;;24.87;42.39;101048.00;5073032;28;20036;-68
2022/06/19 08:36:54;;;;;;;9.85;1.17;;;;;;;24.87;42.12;101017.88;5073384;28;20043;-68
2022/06/19 08:39:20;;;;;;;7.50;1.48;;;;;;;24.86;42.32;101017.00;5072519;28;20017;-65
2022/06/19 08:42:01;;;;;;;3.72;1.00;;;;;;;24.88;42.63;101008.84;5073474;28;20016;-65
2022/06/19 08:44:52;;;;;;;7.32;1.55;;;;;;;24.87;43.03;100988.53;5072966;28;20048;-65
2022/06/19 08:47:20;;;;;;;6.25;1.30;;;;;;;24.86;43.11;100944.22;5070895;28;20028;-64
2022/06/19 08:50:03;;;;;;;4.15;1.33;;;;;;;24.85;42.65;100955.88;5073324;28;20064;-64
2022/06/19 08:52:55;;;;;;;4.22;1.20;;;;;;;24.83;42.80;100977.38;5072212;28;20024;-65
2022/06/19 08:55:30;;;;;;;4.35;1.00;;;;;;;24.82;42.72;100999.69;5072860;28;20028;-65
2022/06/19 08:58:21;;;;;;;6.97;1.75;;;;;;;24.81;42.54;100987.38;5071966;28;20035;-65
2022/06/19 09:00:58;;;;;;;4.43;1.23;;;;;;;24.80;42.47;100993.69;5057812;28;20037;-65
2022/06/19 09:06:37;;;;;;;;;;;;;;;24.78;42.56;101015.19;5072253;28;20035;-65
2022/06/19 09:09:21;;;;;;;5.83;1.60;;;;;;;24.79;42.59;101038.16;5073077;28;19920;-65
2022/06/19 09:12:05;;;;;;;5.15;1.25;;;;;;;24.78;42.56;101062.31;5073145;28;20304;-66
2022/06/19 09:14:59;;;;;;;5.05;1.20;;;;;;;24.78;42.63;101088.97;5071756;28;20033;-65
2022/06/19 09:17:33;;;;;;;3.70;1.03;;;;;;;24.77;42.25;101130.78;5072473;28;20028;-65
2022/06/19 09:20:07;;;;;;;5.53;1.13;;;;;;;24.78;42.44;101139.59;5072626;28;20273;-65
2022/06/19 09:22:47;;;;;;;4.32;1.10;;;;;;;24.78;42.13;101139.59;5071850;28;20056;-65
2022/06/19 09:25:48;;;;;;;4.03;1.00;;;;;;;24.78;42.43;101126.28;5072522;28;20460;-66
2022/06/19 09:28:25;;;;;;;5.47;1.17;;;;;;;24.78;42.58;101120.94;5047605;28;20488;-66
2022/06/19 09:31:12;;;;;;;9.07;1.88;;;;;;;24.78;44.50;101115.63;5072662;28;20024;-66
2022/06/19 09:33:43;;;;;;;9.88;2.70;;;;;;;24.78;45.17;101107.63;5072683;28;20078;-65
2022/06/19 09:36:46;;;;;;;13.63;3.15;;;;;;;24.78;45.82;101099.63;5071702;28;20036;-64
2022/06/19 09:39:33;;;;;;;15.23;2.88;;;;;;;24.78;47.11;101083.63;5072328;28;20029;-66
2022/06/19 09:42:16;;;;;;;8.57;2.42;;;;;;;24.77;47.69;101063.34;5072072;28;20040;-65
2022/06/19 09:45:04;;;;;;;7.53;1.88;;;;;;;24.73;47.63;101048.66;5072726;28;20024;-65
2022/06/19 09:47:40;;;;;;;8.68;1.88;;;;;;;24.73;47.78;101027.34;5072333;28;20060;-65
2022/06/19 09:50:17;;;;;;;6.30;1.90;;;;;;;24.70;48.12;101007.16;5071756;28;20025;-65
2022/06/19 09:53:06;;;;;;;7.18;1.70;;;;;;;24.68;48.30;101024.34;5072631;28;20025;-65
2022/06/19 09:55:37;;;;;;;6.50;1.58;;;;;;;24.66;48.06;101043.16;5072182;28;20488;-65
2022/06/19 09:58:26;;;;;;;6.15;1.42;;;;;;;24.63;48.00;101027.50;5074809;28;20024;-65
2022/06/19 10:00:56;;;;;;;5.32;1.13;;;;;;;24.61;48.20;101011.66;5075847;28;20412;-65
2022/06/19 10:03:43;;;;;;;5.82;1.42;;;;;;;24.59;48.67;101004.81;5075589;28;20086;-65
2022/06/19 10:06:29;;;;;;;6.00;1.30;;;;;;;24.59;48.46;100992.34;5076328;28;20059;-65
2022/06/19 10:08:59;;;;;;;5.25;1.33;;;;;;;24.59;48.62;100988.84;5062201;28;20037;-66
2022/06/19 10:11:36;;;;;;;5.57;1.40;;;;;;;24.57;48.99;100978.34;5075650;28;20024;-67
2022/06/19 10:14:05;;;;;;;4.32;1.10;;;;;;;24.57;49.26;100969.53;5076490;28;20119;-66
2022/06/19 10:16:56;;;;;;;4.88;1.33;;;;;;;24.56;49.43;100974.03;5076069;28;20025;-66
2022/06/19 10:19:37;;;;;;;4.95;1.17;;;;;;;24.55;49.61;100980.31;5076050;28;20120;-66
2022/06/19 10:22:14;;;;;;;4.18;1.23;;;;;;;24.54;49.17;100981.31;5076265;28;20535;-66
2022/06/19 10:25:04;;;;;;;4.30;1.13;;;;;;;24.54;49.49;100970.66;5075454;28;20028;-66
2022/06/19 10:27:58;;;;;;;3.50;1.17;;;;;;;24.55;49.75;100955.50;5075226;28;20058;-65
2022/06/19 10:31:02;;;;;;;6.95;1.30;;;;;;;24.53;49.60;100979.66;5075627;28;20041;-66
2022/06/19 10:33:43;;;;;;;4.68;0.88;;;;;;;24.52;49.54;100996.63;5074769;28;20086;-66
2022/06/19 10:36:18;;;;;;;5.57;1.30;;;;;;;24.53;49.67;100994.78;5075588;28;20033;-67
2022/06/19 10:39:01;;;;;;;7.43;1.40;;;;;;;24.52;49.28;100988.63;5075111;28;20048;-66
2022/06/19 10:44:50;;;;;;;3.95;1.08;;;;;;;24.51;49.69;100970.16;5075386;28;20170;-66
2022/06/19 10:47:57;;;;;;;3.92;1.13;;;;;;;24.50;49.62;100979.97;5075012;28;20035;-67
2022/06/19 10:50:34;;;;;;;4.18;1.00;;;;;;;24.50;49.81;100979.13;5075109;28;20028;-67
2022/06/19 10:53:31;;;;;;;3.58;1.23;;;;;;;24.48;49.92;101005.94;5074803;28;20466;-66
2022/06/19 10:56:01;;;;;;;5.15;1.23;;;;;;;24.47;49.07;101025.59;5075520;28;20040;-66
2022/06/19 10:58:30;;;;;;;4.45;1.10;;;;;;;24.48;48.46;101034.41;5075126;28;20025;-66
2022/06/19 11:01:07;;;;;;;4.70;1.10;;;;;;;24.49;49.59;101044.06;5074436;28;20060;-66
2022/06/19 11:06:34;;;;;;;4.43;1.25;;;;;;;24.48;49.19;101037.06;5074390;28;20047;-66
2022/06/19 11:09:10;;;;;;;4.40;0.88;;;;;;;24.46;49.33;101029.25;5072901;28;20059;-67
2022/06/19 11:11:38;;;;;;;5.43;1.30;;;;;;;24.47;49.60;101027.41;5075344;28;20024;-66
2022/06/19 11:14:09;;;;;;;2.70;1.00;;;;;;;24.47;49.17;101030.91;5074167;28;20020;-66
2022/06/19 11:16:52;;;;;;;2.90;0.93;;;;;;;24.48;49.33;101048.56;5075088;28;20476;-67
2022/06/19 11:19:30;;;;;;;4.25;1.00;;;;;;;24.49;49.32;101070.72;5074713;28;20063;-66
2022/06/19 11:21:55;;;;;;;4.40;1.10;;;;;;;24.47;48.97;101075.34;5074377;28;20056;-67
2022/06/19 11:24:31;;;;;;;3.50;0.98;;;;;;;24.47;49.28;101070.03;5074709;28;20055;-66
2022/06/19 11:26:57;;;;;;;3.97;0.90;;;;;;;24.46;49.06;101063.88;5074801;28;20054;-66
2022/06/19 11:29:26;;;;;;;3.45;1.05;;;;;;;24.47;49.07;101067.34;5073935;28;20100;-66
2022/06/19 11:32:14;;;;;;;3.22;0.95;;;;;;;24.45;49.27;101063.03;5074825;28;20024;-66
2022/06/19 11:34:44;;;;;;;4.50;1.00;;;;;;;24.46;48.86;101087.84;5074083;28;20020;-67
2022/06/19 11:37:28;;;;;;;4.43;1.00;;;;;;;24.47;49.34;101083.34;5074255;28;20016;-66
2022/06/19 11:40:02;;;;;;;4.95;1.02;;;;;;;24.45;49.12;101079.03;5074614;28;20027;-67
2022/06/19 11:42:35;;;;;;;;;;;;;;;24.46;48.99;101071.84;5073926;28;20058;-67
2022/06/19 11:45:19;;;;;;;3.60;0.90;;;;;;;24.48;49.24;101066.38;5074765;28;19920;-67
2022/06/19 11:47:57;;;;;;;4.18;1.05;;;;;;;24.47;48.84;101075.34;5074431;28;20076;-66
2022/06/19 11:50:27;;;;;;;3.08;1.00;;;;;;;24.47;48.47;101086.00;5073411;28;20484;-66
2022/06/19 11:52:56;;;;;;;2.63;0.80;;;;;;;24.47;49.42;101094.00;5074237;28;20085;-65
2022/06/19 11:55:29;;;;;;;4.80;1.10;;;;;;;24.47;49.20;101099.31;5073299;28;20016;-65
2022/06/19 11:58:01;;;;;;;4.13;1.10;;;;;;;24.47;49.20;101109.97;5074441;28;20384;-65